Time;durP1;ratioP1;P1;durP2;ratioP2;P2;SDS_P1;SDS_P2;PMS_P1;PMS_P2;Temp;Humidity;BMP_temperature;BMP_pressure;BME280_temperature;BME280_humidity;BME280_pressure;Samples;Min_cycle;Max_cycle;Signal;HPM_P1;HPM_P2
2022/03/26 08:07:57;;;;;;;;;;;;;;;10.84;50.27;97689.66;4254408;27;10493;-62
2022/03/26 08:09:58;;;;;;;;;;;;;;;10.80;50.78;97691.03;4263943;27;5652;-62
2022/03/26 08:12:00;;;;;;;;;;;;;;;10.88;50.39;97685.69;4249711;27;5679;-62
2022/03/26 08:14:01;;;;;;;;;;;;;;;10.66;49.67;97689.94;4248237;27;5624;-63
2022/03/26 08:16:04;;;;;;;;;;;;;;;10.88;49.65;97691.00;4260904;27;5781;-63
2022/03/26 08:18:06;;;;;;;;;;;;;;;11.01;48.97;97691.25;4265206;27;5660;-63
2022/03/26 08:20:08;;;;;;;;;;;;;;;10.80;49.43;97693.66;4265263;27;6294;-63
2022/03/26 08:22:09;;;;;;;;;;;;;;;11.00;48.59;97689.59;4265142;27;5651;-63
2022/03/26 08:24:12;;;;;;;;;;;;;;;11.06;48.54;97696.81;4264646;27;5722;-63
2022/03/26 08:26:22;;;;;;;;;;;;;;;11.18;48.75;97696.44;4264515;27;5651;-63
2022/03/26 08:28:23;;;;;;;;;;;;;;;11.20;47.96;97699.72;4264597;27;5683;-63
2022/03/26 08:30:25;;;;;;;;;;;;;;;11.23;47.67;97699.41;4263688;27;5593;-63
2022/03/26 08:32:27;;;;;;;;;;;;;;;11.30;48.00;97692.38;4264736;27;5631;-63
2022/03/26 08:34:28;;;;;;;;;;;;;;;11.27;47.48;97696.22;4264873;27;6285;-63
2022/03/26 08:36:30;;;;;;;;;;;;;;;11.34;47.51;97693.69;4256965;27;5679;-63
2022/03/26 08:38:32;;;;;;;;;;;;;;;11.36;47.54;97689.03;4261983;27;5861;-63
2022/03/26 08:40:35;;;;;;;;;;;;;;;11.31;47.90;97692.19;4260775;27;5231;-64
2022/03/26 08:42:37;;;;;;;;;;;;;;;11.16;47.53;97701.09;4258953;27;6376;-64
2022/03/26 08:44:39;;;;;;;;;;;;;;;11.29;47.77;97693.38;4257905;27;5628;-64
2022/03/26 08:46:40;;;;;;;;;;;;;;;11.46;47.29;97692.28;4254905;27;5780;-64
2022/03/26 08:48:42;;;;;;;;;;;;;;;11.22;46.98;97687.16;4256581;27;5647;-64
2022/03/26 08:50:44;;;;;;;;;;;;;;;11.22;47.36;97689.81;4244972;27;5648;-64
2022/03/26 08:52:47;;;;;;;;;;;;;;;11.34;47.46;97685.75;4256066;27;5656;-64
2022/03/26 08:54:49;;;;;;;;;;;;;;;11.38;47.51;97687.03;4259166;27;5582;-64
2022/03/26 08:56:51;;;;;;;;;;;;;;;11.53;47.02;97685.25;4260898;27;5696;-64
2022/03/26 08:58:53;;;;;;;;;;;;;;;11.58;46.84;97682.94;4262872;27;5707;-64
2022/03/26 09:00:54;;;;;;;;;;;;;;;11.76;47.17;97687.91;4259890;27;5647;-64
2022/03/26 09:02:56;;;;;;;;;;;;;;;11.71;46.86;97686.78;4262355;27;5632;-64
2022/03/26 09:04:59;;;;;;;;;;;;;;;11.80;46.98;97685.75;4263873;27;5628;-64
2022/03/26 09:07:00;;;;;;;;;;;;;;;11.83;47.05;97680.91;4259602;27;5792;-64
2022/03/26 09:09:04;;;;;;;;;;;;;;;11.79;47.94;97679.66;4265198;27;5626;-64
2022/03/26 09:11:06;;;;;;;;;;;;;;;11.77;47.65;97672.81;4252688;27;5747;-64
2022/03/26 09:13:08;;;;;;;;;;;;;;;11.98;47.52;97670.34;4250300;27;7755;-64
2022/03/26 09:15:10;;;;;;;;;;;;;;;12.11;47.74;97667.88;4237066;27;5661;-64
2022/03/26 09:17:11;;;;;;;;;;;;;;;11.74;48.49;97671.34;4250310;27;5676;-64
2022/03/26 09:19:13;;;;;;;;;;;;;;;11.92;48.09;97673.72;4246885;27;5799;-64
2022/03/26 09:21:15;;;;;;;;;;;;;;;12.01;47.40;97672.66;4243603;27;5604;-64
2022/03/26 09:23:16;;;;;;;;;;;;;;;12.10;47.16;97676.84;4251362;27;7773;-64
2022/03/26 09:25:20;;;;;;;;;;;;;;;12.11;46.35;97675.84;4248790;27;5655;-63
2022/03/26 09:27:21;;;;;;;;;;;;;;;11.96;46.30;97672.34;4245094;27;5172;-64
2022/03/26 09:29:23;;;;;;;;;;;;;;;12.02;46.97;97676.94;4251066;27;7708;-63
2022/03/26 09:31:25;;;;;;;;;;;;;;;12.18;46.17;97673.31;4248040;27;5639;-64
2022/03/26 09:33:26;;;;;;;;;;;;;;;12.11;47.06;97673.19;4243964;27;5665;-63
2022/03/26 09:35:28;;;;;;;;;;;;;;;12.00;47.79;97673.63;4238652;27;5728;-63
2022/03/26 09:37:30;;;;;;;;;;;;;;;12.02;46.28;97682.25;4250208;27;5723;-62
2022/03/26 09:39:31;;;;;;;;;;;;;;;12.19;45.83;97670.47;4250761;27;5647;-63
2022/03/26 09:41:34;;;;;;;;;;;;;;;12.37;45.47;97671.94;4252346;27;5632;-62
2022/03/26 09:43:36;;;;;;;;;;;;;;;12.17;45.13;97672.47;4247715;27;5656;-62
2022/03/26 09:45:37;;;;;;;;;;;;;;;12.20;44.78;97673.94;4239115;27;5676;-63
2022/03/26 09:47:39;;;;;;;;;;;;;;;12.26;44.92;97673.22;4246134;27;5631;-62
2022/03/26 09:49:41;;;;;;;;;;;;;;;12.32;44.86;97676.97;4249427;27;5731;-62
2022/03/26 09:51:43;;;;;;;;;;;;;;;12.40;44.53;97671.56;4243039;27;5665;-63
2022/03/26 09:53:46;;;;;;;;;;;;;;;12.41;44.00;97673.22;4242081;27;5747;-63
2022/03/26 09:55:48;;;;;;;;;;;;;;;12.54;43.84;97673.38;4238251;27;5658;-63
2022/03/26 09:57:49;;;;;;;;;;;;;;;12.50;42.27;97675.59;4242977;27;6798;-63
2022/03/26 09:59:51;;;;;;;;;;;;;;;12.46;42.36;97668.19;4245405;27;5734;-63
2022/03/26 10:01:53;;;;;;;;;;;;;;;12.48;41.20;97663.53;4250118;27;5598;-62
2022/03/26 10:04:14;;;;;;;;;;;;;;;12.28;41.51;97657.13;4244920;27;5841;-63
2022/03/26 10:06:24;;;;;;;;;;;;;;;12.31;41.57;97667.34;4236643;27;5658;-62
2022/03/26 10:08:26;;;;;;;;;;;;;;;12.42;41.79;97666.91;4249379;27;5593;-63
2022/03/26 10:10:27;;;;;;;;;;;;;;;12.55;41.32;97667.06;4264033;27;5618;-63
2022/03/26 10:12:29;;;;;;;;;;;;;;;12.53;41.65;97661.13;4251158;27;5620;-63
2022/03/26 10:14:48;;;;;;;;;;;;;;;12.71;41.30;97664.25;4250469;27;5722;-62
2022/03/26 10:16:54;;;;;;;;;;;;;;;12.76;41.35;97661.00;4250152;27;5710;-63
2022/03/26 10:18:59;;;;;;;;;;;;;;;12.81;41.14;97670.09;4231619;27;5805;-62
2022/03/26 10:21:00;;;;;;;;;;;;;;;12.60;41.30;97667.38;4244839;27;5759;-62
2022/03/26 10:23:02;;;;;;;;;;;;;;;12.73;41.72;97661.41;4238400;27;5848;-62
2022/03/26 10:25:06;;;;;;;;;;;;;;;12.92;40.88;97665.31;4235865;27;5722;-63
2022/03/26 10:27:11;;;;;;;;;;;;;;;12.77;41.42;97660.81;4247148;27;5731;-62
2022/03/26 10:29:13;;;;;;;;;;;;;;;12.95;40.86;97652.47;4248799;27;5731;-62
2022/03/26 10:33:39;;;;;;;;;;;;;;;12.92;40.01;97654.69;4231681;28;5758;-63
2022/03/26 10:35:52;;;;;;;;;;;;;;;13.02;40.61;97649.88;4231273;28;5884;-63
2022/03/26 10:37:56;;;;;;;;;;;;;;;13.08;40.49;97659.75;4231503;28;5747;-64
2022/03/26 10:40:15;;;;;;;;;;;;;;;13.24;40.87;97656.88;4237509;27;5767;-64
2022/03/26 10:42:17;;;;;;;;;;;;;;;13.19;38.97;97656.66;4248010;27;5797;-69
2022/03/26 10:44:28;;;;;;;;;;;;;;;13.19;39.10;97650.50;4260914;27;5720;-68
2022/03/26 10:46:30;;;;;;;;;;;;;;;13.15;40.03;97652.69;4265249;27;5742;-67
2022/03/26 10:48:34;;;;;;;;;;;;;;;12.91;40.28;97655.66;4264234;27;5673;-65
2022/03/26 10:50:37;;;;;;;;;;;;;;;13.11;39.71;97654.88;4265430;27;5758;-72
2022/03/26 10:52:39;;;;;;;;;;;;;;;13.14;39.34;97651.06;4265581;27;5694;-66
2022/03/26 10:54:41;;;;;;;;;;;;;;;13.33;39.89;97646.97;4265328;27;5709;-66
2022/03/26 10:56:43;;;;;;;;;;;;;;;13.30;40.14;97648.19;4260838;27;6509;-70
2022/03/26 10:58:45;;;;;;;;;;;;;;;13.48;39.63;97647.75;4239164;27;5869;-67
2022/03/26 11:00:47;;;;;;;;;;;;;;;13.54;39.47;97643.50;4249786;27;5730;-70
2022/03/26 11:02:49;;;;;;;;;;;;;;;13.57;38.74;97641.25;4265188;27;5720;-68
2022/03/26 11:04:53;;;;;;;;;;;;;;;13.43;39.32;97650.13;4265038;27;5709;-68
2022/03/26 11:06:58;;;;;;;;;;;;;;;13.46;39.54;97639.13;4254490;27;6038;-67
2022/03/26 11:09:01;;;;;;;;;;;;;;;13.43;39.35;97642.16;4250396;27;5727;-72
2022/03/26 11:11:08;;;;;;;;;;;;;;;13.40;39.16;97639.91;4260374;27;5718;-70
2022/03/26 11:13:12;;;;;;;;;;;;;;;13.23;38.06;97639.31;4248027;27;5742;-67
2022/03/26 11:15:28;;;;;;;;;;;;;;;13.32;38.74;97640.84;4247833;27;5726;-65
2022/03/26 11:17:55;;;;;;;;;;;;;;;13.47;38.49;97634.63;4247923;27;5765;-67
2022/03/26 11:20:05;;;;;;;;;;;;;;;13.49;38.37;97635.28;4232642;27;5743;-70
2022/03/26 11:22:42;;;;;;;;;;;;;;;13.58;38.30;97634.13;4248188;27;5731;-67
2022/03/26 11:24:47;;;;;;;;;;;;;;;13.66;37.88;97632.16;4245667;27;5664;-72
2022/03/26 11:27:05;;;;;;;;;;;;;;;13.69;38.52;97620.31;4246002;27;5700;-67
2022/03/26 11:29:25;;;;;;;;;;;;;;;13.61;39.20;97612.50;4246446;27;5676;-67
2022/03/26 11:31:35;;;;;;;;;;;;;;;13.67;39.44;97609.88;4250368;27;6381;-67
2022/03/26 11:33:38;;;;;;;;;;;;;;;13.67;38.64;97614.38;4250062;27;5655;-69
2022/03/26 11:35:56;;;;;;;;;;;;;;;13.73;38.21;97608.31;4234332;27;5689;-73
2022/03/26 11:38:00;;;;;;;;;;;;;;;13.65;38.34;97613.75;4233812;28;5660;-69
2022/03/26 11:40:02;;;;;;;;;;;;;;;13.82;38.06;97601.84;4249878;27;5636;-64
2022/03/26 11:42:06;;;;;;;;;;;;;;;13.77;38.47;97601.56;4249254;27;5662;-68
2022/03/26 11:44:09;;;;;;;;;;;;;;;13.70;38.44;97611.31;4249165;27;5593;-72
2022/03/26 11:51:24;;;;;;;;;;;;;;;13.95;37.39;97587.81;4249150;27;5682;-69
2022/03/26 11:53:37;;;;;;;;;;;;;;;13.97;37.89;97593.75;4248755;27;5813;-66
2022/03/26 11:55:47;;;;;;;;;;;;;;;13.81;35.92;97591.38;4250535;27;5670;-68
2022/03/26 11:58:12;;;;;;;;;;;;;;;13.58;37.23;97586.28;4249565;27;5644;-73
2022/03/26 12:00:20;;;;;;;;;;;;;;;13.81;37.51;97586.88;4233587;28;5660;-67
2022/03/26 12:02:25;;;;;;;;;;;;;;;13.90;36.12;97593.69;4214876;28;5685;-70
2022/03/26 12:04:27;;;;;;;;;;;;;;;14.09;36.97;97588.69;4233285;27;5728;-67
2022/03/26 12:06:43;;;;;;;;;;;;;;;14.12;37.09;97590.97;4244918;27;5636;-66
2022/03/26 12:09:03;;;;;;;;;;;;;;;14.14;36.83;97580.94;4249857;27;5962;-70
2022/03/26 12:11:05;;;;;;;;;;;;;;;13.77;37.58;97577.66;4263650;27;5694;-64
2022/03/26 12:13:08;;;;;;;;;;;;;;;14.01;37.65;97586.19;4249982;27;5623;-69
2022/03/26 12:15:13;;;;;;;;;;;;;;;14.04;37.84;97580.47;4249097;27;5829;-68
2022/03/26 12:17:49;;;;;;;;;;;;;;;14.24;37.92;97578.75;4250298;27;5648;-72
2022/03/26 12:19:51;;;;;;;;;;;;;;;14.38;37.98;97584.94;4250196;27;5723;-64
2022/03/26 12:21:55;;;;;;;;;;;;;;;14.37;38.38;97581.47;4249033;27;6344;-70
2022/03/26 12:23:56;;;;;;;;;;;;;;;14.22;38.43;97578.94;4250120;27;5781;-72
2022/03/26 12:26:05;;;;;;;;;;;;;;;14.38;38.53;97572.47;4249921;27;6306;-70
2022/03/26 12:28:07;;;;;;;;;;;;;;;14.47;38.42;97571.31;4248516;27;5609;-73
2022/03/26 12:30:09;;;;;;;;;;;;;;;14.44;38.13;97563.75;4248878;27;6325;-72
2022/03/26 12:32:12;;;;;;;;;;;;;;;14.40;38.40;97570.47;4235775;27;5844;-69
2022/03/26 12:34:13;;;;;;;;;;;;;;;14.37;38.56;97565.50;4250177;27;5729;-70
2022/03/26 12:36:18;;;;;;;;;;;;;;;14.38;38.57;97561.00;4253479;27;6405;-72
2022/03/26 12:38:21;;;;;;;;;;;;;;;14.47;38.44;97558.00;4262755;27;5665;-70
2022/03/26 12:40:23;;;;;;;;;;;;;;;14.46;38.94;97553.72;4264505;27;5705;-73
2022/03/26 12:42:25;;;;;;;;;;;;;;;14.66;38.73;97552.97;4264200;27;5712;-74
2022/03/26 12:44:27;;;;;;;;;;;;;;;14.76;38.82;97558.72;4233571;28;5763;-71
2022/03/26 12:46:34;;;;;;;;;;;;;;;14.72;38.51;97557.47;4233305;28;5824;-68
2022/03/26 12:48:36;;;;;;;;;;;;;;;14.72;38.78;97547.69;4233398;28;5808;-72
2022/03/26 12:50:42;;;;;;;;;;;;;;;14.86;38.45;97551.19;4231865;28;5691;-67
2022/03/26 12:52:44;;;;;;;;;;;;;;;14.87;38.54;97544.84;4233237;27;5837;-67
2022/03/26 12:54:57;;;;;;;;;;;;;;;14.87;38.23;97544.84;4233244;28;5080;-68
2022/03/26 12:57:02;;;;;;;;;;;;;;;14.93;38.36;97537.88;4232963;28;5755;-70
2022/03/26 12:59:04;;;;;;;;;;;;;;;14.95;38.33;97535.81;4244038;27;5722;-65
2022/03/26 13:01:10;;;;;;;;;;;;;;;14.78;38.71;97538.06;4236667;27;5788;-66
2022/03/26 13:03:13;;;;;;;;;;;;;;;14.92;38.32;97537.06;4233188;28;6452;-69
2022/03/26 13:05:18;;;;;;;;;;;;;;;15.02;38.59;97536.66;4231348;28;5727;-71
2022/03/26 13:07:20;;;;;;;;;;;;;;;15.08;38.31;97533.19;4231201;28;5715;-69
2022/03/26 13:09:29;;;;;;;;;;;;;;;15.06;37.78;97528.09;4244151;27;5777;-71
2022/03/26 13:11:36;;;;;;;;;;;;;;;15.15;38.01;97526.84;4267774;27;5689;-71
2022/03/26 13:13:48;;;;;;;;;;;;;;;15.14;38.08;97527.03;4267034;27;5698;-66
2022/03/26 13:16:04;;;;;;;;;;;;;;;15.15;38.36;97526.84;4265384;27;5645;-72
2022/03/26 13:18:10;;;;;;;;;;;;;;;15.13;37.79;97525.41;4264914;27;5776;-71
2022/03/26 13:20:26;;;;;;;;;;;;;;;14.88;37.70;97511.88;4249530;27;5726;-72
2022/03/26 13:22:28;;;;;;;;;;;;;;;15.12;38.13;97521.94;4249826;27;5734;-70
2022/03/26 13:24:30;;;;;;;;;;;;;;;15.15;37.95;97516.19;4250068;27;5773;-71
2022/03/26 13:26:44;;;;;;;;;;;;;;;15.00;37.60;97514.75;4249394;27;5809;-69
2022/03/26 13:28:46;;;;;;;;;;;;;;;15.04;37.57;97514.13;4247987;27;5680;-70
2022/03/26 13:30:51;;;;;;;;;;;;;;;15.07;38.57;97499.59;4249861;27;5723;-70
2022/03/26 13:33:01;;;;;;;;;;;;;;;15.14;38.30;97500.41;4250117;27;6062;-68
2022/03/26 13:35:03;;;;;;;;;;;;;;;15.25;38.29;97499.78;4249707;27;5746;-64
2022/03/26 13:37:08;;;;;;;;;;;;;;;15.36;38.10;97496.50;4248287;27;5688;-66
2022/03/26 13:39:15;;;;;;;;;;;;;;;15.37;38.34;97487.50;4249881;27;5719;-69
2022/03/26 13:41:21;;;;;;;;;;;;;;;15.37;38.29;97492.81;4249630;27;5864;-67
2022/03/26 13:43:23;;;;;;;;;;;;;;;15.30;38.12;97485.88;4249527;27;5742;-67
2022/03/26 13:45:25;;;;;;;;;;;;;;;15.25;38.42;97483.00;4247863;27;5688;-70
2022/03/26 13:47:31;;;;;;;;;;;;;;;15.17;38.58;97483.19;4249537;27;5770;-69
2022/03/26 13:49:35;;;;;;;;;;;;;;;15.31;38.38;97480.34;4249647;27;5722;-72
2022/03/26 13:51:39;;;;;;;;;;;;;;;15.47;38.12;97475.59;4248141;27;5704;-64
2022/03/26 13:53:42;;;;;;;;;;;;;;;15.46;37.91;97474.78;4231262;27;5106;-67
2022/03/26 13:55:52;;;;;;;;;;;;;;;15.60;37.91;97479.09;4248773;27;5722;-71
2022/03/26 13:57:57;;;;;;;;;;;;;;;15.65;37.89;97471.31;4247515;27;5719;-66
2022/03/26 14:00:17;;;;;;;;;;;;;;;15.67;38.12;97463.91;4236112;27;5746;-69
2022/03/26 14:02:25;;;;;;;;;;;;;;;15.71;37.73;97459.78;4249348;27;5807;-69
2022/03/26 14:04:28;;;;;;;;;;;;;;;15.55;38.01;97462.88;4249643;27;5797;-67
2022/03/26 14:06:30;;;;;;;;;;;;;;;15.57;38.37;97463.50;4248829;27;5796;-64
2022/03/26 14:08:32;;;;;;;;;;;;;;;15.75;38.09;97462.88;4250101;27;5722;-66
2022/03/26 14:10:43;;;;;;;;;;;;;;;15.78;37.78;97456.31;4265066;27;6566;-70
2022/03/26 14:12:45;;;;;;;;;;;;;;;15.73;38.29;97454.25;4265175;27;5757;-68
2022/03/26 14:14:47;;;;;;;;;;;;;;;15.87;38.30;97452.38;4265129;27;5681;-71
2022/03/26 14:16:49;;;;;;;;;;;;;;;15.84;37.52;97456.25;4251693;27;5712;-73
2022/03/26 14:18:50;;;;;;;;;;;;;;;15.86;37.91;97454.22;4241766;27;5741;-67
2022/03/26 14:20:52;;;;;;;;;;;;;;;15.88;37.82;97446.84;4231927;27;5740;-67
2022/03/26 14:22:58;;;;;;;;;;;;;;;15.94;37.88;97445.97;4231978;28;5771;-72
2022/03/26 14:24:59;;;;;;;;;;;;;;;16.01;38.12;97461.97;4231624;28;5741;-72
2022/03/26 14:27:01;;;;;;;;;;;;;;;16.00;37.80;97444.31;4231271;28;5740;-70
2022/03/26 14:29:03;;;;;;;;;;;;;;;15.72;38.51;97453.44;4231366;28;5740;-72
2022/03/26 14:31:06;;;;;;;;;;;;;;;15.91;38.42;97450.91;4230120;28;5809;-66
2022/03/26 14:33:11;;;;;;;;;;;;;;;15.94;38.38;97445.97;4230034;28;5938;-72
2022/03/26 14:35:12;;;;;;;;;;;;;;;15.94;38.24;97442.50;4231512;28;6169;-67
2022/03/26 14:37:14;;;;;;;;;;;;;;;16.01;38.43;97448.63;4231410;28;5744;-68
2022/03/26 14:39:16;;;;;;;;;;;;;;;15.96;38.57;97446.56;4231081;28;5913;-65
2022/03/26 14:41:17;;;;;;;;;;;;;;;16.02;38.11;97443.06;4231344;28;5846;-64
2022/03/26 14:43:24;;;;;;;;;;;;;;;15.96;38.19;97443.09;4237799;27;6550;-69
2022/03/26 14:45:27;;;;;;;;;;;;;;;15.81;38.40;97434.53;4247973;27;5710;-66
2022/03/26 14:47:30;;;;;;;;;;;;;;;15.96;38.06;97443.09;4248202;27;5759;-67
2022/03/26 14:49:31;;;;;;;;;;;;;;;15.96;38.00;97438.56;4248182;27;5680;-69
2022/03/26 14:51:34;;;;;;;;;;;;;;;15.91;37.99;97432.25;4249317;27;5803;-70
2022/03/26 14:53:35;;;;;;;;;;;;;;;16.06;37.41;97434.66;4250844;27;5609;-69
2022/03/26 14:55:38;;;;;;;;;;;;;;;15.93;37.19;97431.00;4251116;27;6125;-72
2022/03/26 14:57:44;;;;;;;;;;;;;;;16.07;37.54;97428.28;4250682;27;7689;-72
2022/03/26 14:59:46;;;;;;;;;;;;;;;16.09;37.23;97426.25;4236134;27;5644;-66
2022/03/26 15:01:48;;;;;;;;;;;;;;;16.18;37.36;97420.44;4249326;27;5694;-69
2022/03/26 15:03:50;;;;;;;;;;;;;;;16.17;37.37;97428.66;4250633;27;5679;-72
2022/03/26 15:05:51;;;;;;;;;;;;;;;16.21;37.62;97420.03;4242913;27;5720;-68
2022/03/26 15:07:53;;;;;;;;;;;;;;;16.20;37.67;97425.56;4237378;27;5665;-75
2022/03/26 15:09:57;;;;;;;;;;;;;;;16.25;37.70;97421.22;4236266;27;5645;-72
2022/03/26 15:12:00;;;;;;;;;;;;;;;16.25;37.43;97418.56;4243044;27;5605;-70
2022/03/26 15:14:03;;;;;;;;;;;;;;;16.21;37.22;97420.03;4250090;27;6424;-63
2022/03/26 15:16:04;;;;;;;;;;;;;;;16.16;37.41;97411.81;4249038;27;5703;-65
2022/03/26 15:18:06;;;;;;;;;;;;;;;16.17;37.15;97418.78;4242249;27;5755;-73
2022/03/26 15:20:09;;;;;;;;;;;;;;;16.24;36.50;97424.91;4243664;27;5780;-67
2022/03/26 15:22:11;;;;;;;;;;;;;;;16.19;36.89;97427.38;4248758;27;5735;-65
2022/03/26 15:24:13;;;;;;;;;;;;;;;16.15;36.98;97420.03;4243968;27;6863;-67
2022/03/26 15:26:14;;;;;;;;;;;;;;;16.09;37.30;97419.06;4233469;27;5844;-70
2022/03/26 15:28:16;;;;;;;;;;;;;;;16.19;36.97;97416.72;4250543;27;5619;-73
2022/03/26 15:30:18;;;;;;;;;;;;;;;16.21;37.00;97414.69;4244126;27;5683;-73
2022/03/26 15:32:19;;;;;;;;;;;;;;;16.21;36.64;97408.53;4232853;27;5588;-69
2022/03/26 15:34:23;;;;;;;;;;;;;;;16.17;36.70;97413.44;4233522;27;5685;-68
2022/03/26 15:36:25;;;;;;;;;;;;;;;16.18;36.42;97419.59;4233717;27;5657;-67
2022/03/26 15:38:26;;;;;;;;;;;;;;;16.13;36.78;97417.59;4233587;27;5649;-67
2022/03/26 15:40:28;;;;;;;;;;;;;;;16.14;36.67;97416.56;4249295;27;5899;-67
2022/03/26 15:42:30;;;;;;;;;;;;;;;16.24;36.88;97419.59;4250636;27;8129;-67
2022/03/26 15:44:35;;;;;;;;;;;;;;;16.28;36.72;97414.63;4250774;27;5730;-69
2022/03/26 15:46:42;;;;;;;;;;;;;;;16.27;36.63;97416.47;4250635;27;6195;-68
2022/03/26 15:48:44;;;;;;;;;;;;;;;16.24;36.58;97418.75;4250603;27;5659;-72
2022/03/26 15:50:46;;;;;;;;;;;;;;;16.14;36.86;97419.22;4250679;27;5655;-69
2022/03/26 15:52:48;;;;;;;;;;;;;;;16.17;36.68;97416.13;4250176;27;5620;-73
2022/03/26 15:54:49;;;;;;;;;;;;;;;16.06;36.42;97418.63;4237912;27;5733;-68
2022/03/26 15:56:51;;;;;;;;;;;;;;;16.07;36.48;97413.09;4236091;27;5718;-68
2022/03/26 15:58:53;;;;;;;;;;;;;;;16.10;36.87;97417.22;4241518;27;5574;-69
2022/03/26 16:00:55;;;;;;;;;;;;;;;16.02;36.34;97420.94;4240826;27;5652;-67
2022/03/26 16:02:57;;;;;;;;;;;;;;;15.99;36.43;97416.84;4243623;27;5681;-67
2022/03/26 16:04:59;;;;;;;;;;;;;;;16.07;37.16;97414.94;4248697;27;5751;-64
2022/03/26 16:07:01;;;;;;;;;;;;;;;16.11;36.58;97417.00;4240437;27;6562;-67
2022/03/26 16:09:02;;;;;;;;;;;;;;;16.09;36.83;97412.91;4253200;27;5606;-65
2022/03/26 16:11:04;;;;;;;;;;;;;;;16.09;36.75;97410.25;4267399;27;5070;-65
2022/03/26 16:13:06;;;;;;;;;;;;;;;16.03;36.51;97425.22;4267376;27;5628;-66
2022/03/26 16:15:08;;;;;;;;;;;;;;;16.13;37.21;97416.78;4249730;27;5872;-67
2022/03/26 16:17:10;;;;;;;;;;;;;;;16.13;36.93;97422.94;4236474;27;5652;-72
2022/03/26 16:19:11;;;;;;;;;;;;;;;16.15;36.65;97420.03;4249317;27;6404;-73
2022/03/26 16:21:13;;;;;;;;;;;;;;;16.15;36.91;97409.38;4253649;27;5725;-68
2022/03/26 16:23:15;;;;;;;;;;;;;;;16.19;36.93;97410.56;4253702;27;5624;-70
2022/03/26 16:25:17;;;;;;;;;;;;;;;16.21;36.71;97411.19;4253792;27;5624;-70
2022/03/26 16:27:18;;;;;;;;;;;;;;;16.26;36.57;97416.69;4253554;27;5683;-71
2022/03/26 16:29:20;;;;;;;;;;;;;;;16.15;36.45;97418.19;4253281;27;5616;-72
2022/03/26 16:31:22;;;;;;;;;;;;;;;16.17;36.52;97413.44;4253315;27;5631;-68
2022/03/26 16:33:23;;;;;;;;;;;;;;;16.21;36.63;97413.88;4253602;27;5739;-73
2022/03/26 16:35:25;;;;;;;;;;;;;;;16.06;36.38;97416.78;4246918;27;5657;-71
2022/03/26 16:37:28;;;;;;;;;;;;;;;15.98;36.19;97409.88;4251480;27;5628;-72
2022/03/26 16:39:30;;;;;;;;;;;;;;;16.07;36.43;97423.75;4252763;27;5628;-67
2022/03/26 16:41:33;;;;;;;;;;;;;;;16.11;36.47;97417.00;4253236;27;6694;-64
2022/03/26 16:43:35;;;;;;;;;;;;;;;15.96;36.38;97413.75;4253113;27;5650;-71
2022/03/26 16:45:42;;;;;;;;;;;;;;;15.94;36.62;97413.97;4252824;27;5627;-66
2022/03/26 16:47:44;;;;;;;;;;;;;;;15.96;36.33;97416.44;4253329;27;6297;-65
2022/03/26 16:49:46;;;;;;;;;;;;;;;15.94;36.32;97418.50;4253464;27;5623;-68
2022/03/26 16:51:47;;;;;;;;;;;;;;;15.95;36.70;97412.94;4253260;27;5652;-69
2022/03/26 16:53:49;;;;;;;;;;;;;;;15.89;36.26;97418.31;4251090;27;5740;-69
2022/03/26 16:55:51;;;;;;;;;;;;;;;15.82;36.74;97414.84;4250750;27;5705;-68
2022/03/26 16:57:53;;;;;;;;;;;;;;;15.79;37.02;97420.63;4233699;28;5688;-66
2022/03/26 16:59:55;;;;;;;;;;;;;;;15.71;37.17;97417.13;4250402;27;5733;-72
2022/03/26 17:01:56;;;;;;;;;;;;;;;15.74;37.24;97429.22;4259778;27;5722;-73
2022/03/26 17:04:04;;;;;;;;;;;;;;;15.79;37.27;97428.59;4263579;27;5678;-70
2022/03/26 17:06:07;;;;;;;;;;;;;;;15.75;37.22;97428.22;4255532;27;5769;-73
2022/03/26 17:08:09;;;;;;;;;;;;;;;15.77;37.45;97426.16;4248721;27;5121;-71
2022/03/26 17:10:10;;;;;;;;;;;;;;;15.66;38.18;97427.63;4257739;27;5846;-69
2022/03/26 17:12:12;;;;;;;;;;;;;;;15.70;38.12;97420.84;4244827;27;5755;-62
2022/03/26 17:14:14;;;;;;;;;;;;;;;15.42;39.28;97421.09;4232707;28;5859;-70
2022/03/26 17:16:17;;;;;;;;;;;;;;;15.47;39.79;97423.13;4233021;28;5748;-70
2022/03/26 17:18:19;;;;;;;;;;;;;;;15.57;39.57;97426.19;4236421;27;5770;-66
2022/03/26 17:20:21;;;;;;;;;;;;;;;15.54;40.26;97428.47;4249949;27;5715;-68
2022/03/26 17:22:23;;;;;;;;;;;;;;;15.53;39.75;97432.97;4249726;27;5723;-65
2022/03/26 17:24:24;;;;;;;;;;;;;;;15.61;39.61;97432.75;4249655;27;6841;-66
2022/03/26 17:26:26;;;;;;;;;;;;;;;15.56;39.50;97431.72;4249593;27;6544;-66
2022/03/26 17:28:28;;;;;;;;;;;;;;;15.52;39.25;97442.00;4247714;27;5773;-67
2022/03/26 17:30:31;;;;;;;;;;;;;;;15.52;39.53;97427.84;4249790;27;5763;-69
2022/03/26 17:32:33;;;;;;;;;;;;;;;15.47;39.78;97425.78;4249784;27;5763;-71
2022/03/26 17:34:35;;;;;;;;;;;;;;;15.48;40.40;97429.28;4249881;27;5727;-69
2022/03/26 17:36:37;;;;;;;;;;;;;;;15.46;39.90;97434.81;4246078;27;5782;-68
2022/03/26 17:38:38;;;;;;;;;;;;;;;15.51;39.95;97429.66;4235821;27;5798;-69
2022/03/26 17:40:40;;;;;;;;;;;;;;;15.54;39.97;97431.13;4249702;27;5770;-68
2022/03/26 17:42:44;;;;;;;;;;;;;;;15.53;40.19;97432.97;4248031;27;5193;-66
2022/03/26 17:44:46;;;;;;;;;;;;;;;15.48;40.70;97423.94;4249846;27;5799;-66
2022/03/26 17:46:48;;;;;;;;;;;;;;;15.26;41.38;97426.84;4249685;27;5791;-67
2022/03/26 17:48:49;;;;;;;;;;;;;;;15.22;41.40;97427.47;4249703;27;5805;-65
2022/03/26 17:50:52;;;;;;;;;;;;;;;15.33;41.24;97432.19;4249492;27;5752;-65
2022/03/26 17:52:53;;;;;;;;;;;;;;;15.40;41.15;97427.63;4249466;27;5731;-68
2022/03/26 17:54:55;;;;;;;;;;;;;;;15.43;40.90;97433.41;4249496;27;5738;-71
2022/03/26 17:56:56;;;;;;;;;;;;;;;15.44;40.97;97437.69;4249072;27;5078;-71
2022/03/26 17:58:58;;;;;;;;;;;;;;;15.27;41.71;97439.13;4238583;27;5899;-70
2022/03/26 18:01:00;;;;;;;;;;;;;;;15.35;41.31;97436.28;4238274;27;7076;-71
2022/03/26 18:03:02;;;;;;;;;;;;;;;15.24;42.14;97438.75;4249129;27;5699;-72
2022/03/26 18:05:07;;;;;;;;;;;;;;;15.13;43.39;97438.34;4249471;27;5715;-68
2022/03/26 18:07:09;;;;;;;;;;;;;;;15.20;43.32;97440.19;4239726;27;5713;-67
2022/03/26 18:09:11;;;;;;;;;;;;;;;15.26;42.88;97437.50;4239997;27;5701;-68
2022/03/26 18:11:12;;;;;;;;;;;;;;;15.26;44.20;97434.03;4266332;27;5686;-65
2022/03/26 18:13:14;;;;;;;;;;;;;;;15.31;43.97;97442.22;4265751;27;5709;-69
2022/03/26 18:15:16;;;;;;;;;;;;;;;15.31;44.35;97444.91;4266332;27;5729;-70
2022/03/26 18:17:17;;;;;;;;;;;;;;;15.05;44.80;97441.19;4264855;27;5642;-69
2022/03/26 18:19:19;;;;;;;;;;;;;;;15.06;44.19;97437.53;4262225;27;5824;-68
2022/03/26 18:21:21;;;;;;;;;;;;;;;15.18;44.59;97444.91;4248869;27;6849;-66
2022/03/26 18:23:22;;;;;;;;;;;;;;;15.23;43.75;97448.59;4248712;27;6406;-69
2022/03/26 18:25:24;;;;;;;;;;;;;;;15.23;43.16;97442.44;4247616;27;5692;-69
2022/03/26 18:27:26;;;;;;;;;;;;;;;15.22;43.39;97454.13;4248838;27;5790;-70
2022/03/26 18:29:28;;;;;;;;;;;;;;;14.94;44.63;97449.81;4248878;27;5113;-65
2022/03/26 18:31:30;;;;;;;;;;;;;;;14.97;44.14;97453.94;4247368;27;5728;-65
2022/03/26 18:33:32;;;;;;;;;;;;;;;15.05;43.83;97457.19;4247518;27;5839;-66
2022/03/26 18:35:33;;;;;;;;;;;;;;;15.00;43.93;97457.00;4246069;27;5700;-71
2022/03/26 18:37:35;;;;;;;;;;;;;;;15.02;44.21;97462.94;4246413;27;6399;-68
2022/03/26 18:39:37;;;;;;;;;;;;;;;14.95;44.61;97462.13;4246056;27;5932;-70
2022/03/26 18:41:40;;;;;;;;;;;;;;;14.79;44.88;97465.16;4244120;27;5718;-69
2022/03/26 18:43:42;;;;;;;;;;;;;;;14.57;45.22;97462.66;4245146;27;5780;-65
2022/03/26 18:45:44;;;;;;;;;;;;;;;14.71;44.30;97468.00;4231716;28;5761;-67
2022/03/26 18:47:46;;;;;;;;;;;;;;;14.87;44.26;97477.47;4238735;27;5684;-71
2022/03/26 18:49:48;;;;;;;;;;;;;;;14.86;44.10;97471.31;4248647;27;5726;-71
2022/03/26 18:51:49;;;;;;;;;;;;;;;14.87;44.05;97475.63;4246457;27;5847;-69
2022/03/26 18:53:56;;;;;;;;;;;;;;;14.91;44.09;97473.38;4244638;27;5774;-66
2022/03/26 18:55:58;;;;;;;;;;;;;;;14.93;43.64;97479.31;4241979;27;5643;-70
2022/03/26 18:58:00;;;;;;;;;;;;;;;14.81;43.89;97482.56;4244228;27;5739;-67
2022/03/26 19:00:32;;;;;;;;;;;;;;;14.79;43.91;97481.94;4244350;27;5823;-70
2022/03/26 19:02:27;;;;;;;;;;;;;;;14.82;43.70;97483.38;4235656;27;5748;-67
2022/03/26 19:04:29;;;;;;;;;;;;;;;14.90;43.46;97490.38;4242915;27;6461;-73
2022/03/26 19:06:32;;;;;;;;;;;;;;;14.82;44.25;97480.72;4245363;27;5791;-69
2022/03/26 19:08:34;;;;;;;;;;;;;;;14.50;44.37;97491.13;4242390;27;5723;-70